Time;durP1;ratioP1;P1;durP2;ratioP2;P2;SDS_P1;SDS_P2;PMS_P1;PMS_P2;Temp;Humidity;BMP_temperature;BMP_pressure;BME280_temperature;BME280_humidity;BME280_pressure;Samples;Min_cycle;Max_cycle;Signal;HPM_P1;HPM_P2
2023/08/04 00:02:13;;;;;;;;;;;21.10;89.20;;;;;;4172901;28;19931;-55
2023/08/04 00:04:54;;;;;;;;;;;21.10;89.20;;;;;;4171949;28;19971;-55
2023/08/04 00:07:37;;;;;;;;;;;21.10;89.20;;;;;;4172011;28;19998;-56
2023/08/04 00:10:18;;;;;;;;;;;21.10;89.20;;;;;;4172753;28;19932;-55
2023/08/04 00:12:59;;;;;;;;;;;21.10;89.20;;;;;;4143822;28;19932;-57
2023/08/04 00:15:40;;;;;;;;;;;21.10;89.20;;;;;;4189280;28;20015;-57
2023/08/04 00:18:20;;;;;;;;;;;21.10;89.20;;;;;;4188904;28;19935;-56
2023/08/04 00:21:01;;;;;;;;;;;21.10;89.30;;;;;;4187852;28;19931;-57
2023/08/04 00:23:43;;;;;;;;;;;21.10;89.30;;;;;;4189277;28;19935;-57
2023/08/04 00:26:24;;;;;;;;;;;21.10;89.30;;;;;;4188744;28;19931;-56
2023/08/04 00:29:05;;;;;;;;;;;21.10;89.30;;;;;;4161884;28;20386;-55
2023/08/04 00:31:46;;;;;;;;;;;21.10;90.10;;;;;;4189050;28;20282;-57
2023/08/04 00:34:28;;;;;;;;;;;21.10;89.40;;;;;;4188002;28;19991;-57
2023/08/04 00:37:08;;;;;;;;;;;21.10;89.30;;;;;;4177297;28;19936;-57
2023/08/04 00:39:51;;;;;;;;;;;21.10;89.30;;;;;;4177327;28;19931;-56
2023/08/04 00:42:32;;;;;;;;;;;21.00;89.20;;;;;;4177111;28;20395;-55
2023/08/04 00:45:12;;;;;;;;;;;21.00;89.20;;;;;;4174585;28;20025;-55
2023/08/04 00:47:53;;;;;;;;;;;21.10;89.30;;;;;;4187523;28;19931;-55
2023/08/04 00:50:37;;;;;;;;;;;21.10;89.30;;;;;;4158868;28;20058;-42
2023/08/04 00:53:21;;;;;;;;;;;21.00;89.20;;;;;;4136231;28;19936;-49
2023/08/04 00:56:06;;;;;;;;;;;21.10;90.00;;;;;;4154765;28;20050;-41
2023/08/04 00:58:51;;;;;;;;;;;21.00;89.20;;;;;;4154071;28;20503;-41
2023/08/04 01:01:37;;;;;;;;;;;21.00;90.00;;;;;;4165599;28;19936;-41
2023/08/04 01:04:22;;;;;;;;;;;21.00;89.20;;;;;;4158928;28;20299;-41
2023/08/04 01:07:15;;;;;;;;;;;21.00;89.20;;;;;;4159034;28;19936;-42
2023/08/04 01:10:06;;;;;;;;;;;21.00;89.20;;;;;;4108475;28;19932;-41
2023/08/04 01:12:56;;;;;;;;;;;21.00;89.20;;;;;;4106415;28;19932;-42
2023/08/04 01:15:39;;;;;;;;;;;21.00;89.20;;;;;;4158834;28;19931;-42
2023/08/04 01:18:23;;;;;;;;;;;21.00;89.20;;;;;;4143131;28;19978;-46
2023/08/04 01:21:08;;;;;;;;;;;21.00;89.20;;;;;;4142293;28;19932;-43
2023/08/04 01:23:53;;;;;;;;;;;21.00;89.20;;;;;;4168090;28;19959;-42
2023/08/04 01:26:40;;;;;;;;;;;21.00;89.20;;;;;;4131734;28;20425;-41
2023/08/04 01:29:27;;;;;;;;;;;21.00;89.20;;;;;;4130801;28;19984;-42
2023/08/04 01:32:10;;;;;;;;;;;21.00;89.30;;;;;;4122610;28;19952;-42
2023/08/04 01:34:53;;;;;;;;;;;21.00;89.20;;;;;;4146636;28;19977;-41
2023/08/04 01:37:38;;;;;;;;;;;21.00;89.20;;;;;;4152417;28;20062;-41
2023/08/04 01:40:20;;;;;;;;;;;21.00;90.00;;;;;;4156501;28;19982;-41
2023/08/04 01:43:04;;;;;;;;;;;21.00;89.20;;;;;;4134235;28;19970;-42
2023/08/04 01:45:49;;;;;;;;;;;21.00;89.30;;;;;;4159113;28;20335;-42
2023/08/04 01:48:32;;;;;;;;;;;21.00;89.30;;;;;;4160217;28;19932;-41
2023/08/04 01:51:22;;;;;;;;;;;21.00;90.00;;;;;;4118551;28;19947;-42
2023/08/04 01:54:06;;;;;;;;;;;21.00;89.20;;;;;;4133621;28;20426;-42
2023/08/04 01:56:52;;;;;;;;;;;20.90;89.20;;;;;;4152175;28;20295;-41
2023/08/04 01:59:34;;;;;;;;;;;20.90;89.20;;;;;;4149400;28;19939;-43
2023/08/04 02:02:19;;;;;;;;;;;20.90;89.20;;;;;;4144774;28;19936;-42
2023/08/04 02:05:05;;;;;;;;;;;20.90;89.20;;;;;;4087370;28;19936;-53
2023/08/04 02:07:51;;;;;;;;;;;20.90;89.20;;;;;;4095659;28;20455;-50
2023/08/04 02:10:37;;;;;;;;;;;20.90;90.00;;;;;;4111559;28;19936;-52
2023/08/04 02:13:20;;;;;;;;;;;20.90;89.20;;;;;;4110213;28;20058;-53
2023/08/04 02:16:13;;;;;;;;;;;20.90;89.20;;;;;;4091616;28;20307;-52
2023/08/04 02:19:05;;;;;;;;;;;20.90;89.30;;;;;;4123969;28;20431;-53
2023/08/04 02:21:54;;;;;;;;;;;20.90;89.30;;;;;;4126281;28;20299;-52
2023/08/04 02:24:36;;;;;;;;;;;20.90;89.30;;;;;;4124631;28;19936;-51
2023/08/04 02:27:19;;;;;;;;;;;20.90;89.30;;;;;;4131813;28;19935;-53
2023/08/04 02:30:03;;;;;;;;;;;20.90;89.30;;;;;;4126419;28;20352;-53
2023/08/04 02:32:46;;;;;;;;;;;20.90;89.30;;;;;;4093337;28;20067;-41
2023/08/04 02:35:32;;;;;;;;;;;20.90;89.30;;;;;;4138883;28;19932;-54
2023/08/04 02:38:16;;;;;;;;;;;20.90;89.30;;;;;;4115086;28;19932;-51
2023/08/04 02:41:05;;;;;;;;;;;20.90;90.00;;;;;;4128519;28;20011;-51
2023/08/04 02:43:50;;;;;;;;;;;20.90;89.40;;;;;;4144126;28;19992;-55
2023/08/04 02:46:38;;;;;;;;;;;20.80;89.30;;;;;;4125050;28;19955;-43
2023/08/04 02:49:21;;;;;;;;;;;20.80;90.00;;;;;;4127449;28;19932;-42
2023/08/04 02:52:14;;;;;;;;;;;20.80;89.30;;;;;;4108693;28;20459;-43
2023/08/04 02:54:56;;;;;;;;;;;20.80;89.40;;;;;;4143973;28;20303;-42
2023/08/04 02:57:38;;;;;;;;;;;20.80;90.10;;;;;;4160004;28;19967;-42
2023/08/04 03:00:21;;;;;;;;;;;20.80;89.40;;;;;;4158154;28;19932;-42
2023/08/04 03:03:07;;;;;;;;;;;20.80;89.40;;;;;;4137714;28;20462;-42
2023/08/04 03:05:57;;;;;;;;;;;20.80;89.40;;;;;;4127774;28;19931;-41
2023/08/04 03:08:44;;;;;;;;;;;20.80;89.40;;;;;;4140742;28;19995;-42
2023/08/04 03:11:28;;;;;;;;;;;20.80;89.40;;;;;;4157428;28;20030;-52
2023/08/04 03:14:16;;;;;;;;;;;20.80;89.50;;;;;;4142546;28;19940;-49
2023/08/04 03:17:03;;;;;;;;;;;20.80;89.40;;;;;;4144516;28;19936;-51
2023/08/04 03:19:49;;;;;;;;;;;20.80;89.40;;;;;;4164252;28;20063;-51
2023/08/04 03:22:32;;;;;;;;;;;20.80;89.40;;;;;;4141806;28;19936;-55
2023/08/04 03:25:19;;;;;;;;;;;20.80;89.40;;;;;;4156364;28;19935;-52
2023/08/04 03:28:01;;;;;;;;;;;20.70;89.40;;;;;;4163117;28;19952;-54
2023/08/04 03:30:46;;;;;;;;;;;20.70;90.10;;;;;;4155295;28;19932;-52
2023/08/04 03:33:32;;;;;;;;;;;20.70;89.50;;;;;;4129198;28;19998;-51
2023/08/04 03:36:14;;;;;;;;;;;20.80;89.50;;;;;;4157428;28;19935;-53
2023/08/04 03:38:58;;;;;;;;;;;20.80;89.50;;;;;;4155401;28;19935;-51
2023/08/04 03:41:39;;;;;;;;;;;20.70;89.50;;;;;;4172084;28;19936;-52
2023/08/04 03:44:23;;;;;;;;;;;20.70;89.50;;;;;;4165478;28;19936;-52
2023/08/04 03:47:05;;;;;;;;;;;20.70;89.50;;;;;;4173673;28;19951;-53
2023/08/04 03:49:48;;;;;;;;;;;20.70;89.50;;;;;;4136879;28;19970;-52
2023/08/04 03:52:30;;;;;;;;;;;20.70;89.50;;;;;;4150627;28;19936;-54
2023/08/04 03:55:14;;;;;;;;;;;20.70;89.50;;;;;;4165678;28;19948;-51
2023/08/04 03:58:01;;;;;;;;;;;20.70;89.50;;;;;;4141327;28;20034;-52
2023/08/04 04:00:45;;;;;;;;;;;20.70;89.50;;;;;;4130862;28;19935;-50
2023/08/04 04:03:36;;;;;;;;;;;20.70;89.50;;;;;;4141824;28;19975;-51
2023/08/04 04:06:22;;;;;;;;;;;20.70;90.10;;;;;;4153559;28;20764;-52
2023/08/04 04:09:04;;;;;;;;;;;20.70;89.50;;;;;;4162037;28;19948;-53
2023/08/04 04:11:46;;;;;;;;;;;20.70;89.50;;;;;;4155502;28;19930;-53
2023/08/04 04:14:30;;;;;;;;;;;20.70;90.10;;;;;;4145958;28;20386;-52
2023/08/04 04:17:12;;;;;;;;;;;20.70;89.60;;;;;;4150632;28;20058;-52
2023/08/04 04:20:00;;;;;;;;;;;20.70;89.50;;;;;;4155272;28;20050;-54
2023/08/04 04:22:49;;;;;;;;;;;20.70;89.60;;;;;;4155144;28;19935;-51
2023/08/04 04:25:33;;;;;;;;;;;20.70;90.20;;;;;;4162185;28;19931;-53
2023/08/04 04:28:14;;;;;;;;;;;20.70;90.20;;;;;;4148454;28;19935;-52
2023/08/04 04:31:02;;;;;;;;;;;20.70;89.60;;;;;;4157029;28;19931;-50
2023/08/04 04:33:51;;;;;;;;;;;20.70;89.50;;;;;;4166848;28;20315;-53
2023/08/04 04:36:40;;;;;;;;;;;20.70;89.50;;;;;;4136266;28;20765;-51
2023/08/04 04:39:23;;;;;;;;;;;20.60;89.30;;;;;;4167209;28;20272;-52
2023/08/04 04:42:07;;;;;;;;;;;20.60;89.70;;;;;;4156368;28;20391;-50
2023/08/04 04:44:49;;;;;;;;;;;20.60;89.30;;;;;;4152987;28;19935;-50
2023/08/04 04:47:31;;;;;;;;;;;20.60;90.00;;;;;;4152060;28;19931;-52
2023/08/04 04:50:13;;;;;;;;;;;20.60;89.30;;;;;;4164773;28;19932;-51
2023/08/04 04:52:55;;;;;;;;;;;20.60;89.30;;;;;;4160535;28;19935;-49
2023/08/04 04:55:45;;;;;;;;;;;20.60;89.50;;;;;;4152988;28;20366;-49
2023/08/04 04:58:27;;;;;;;;;;;20.60;89.60;;;;;;4144620;28;19936;-49
2023/08/04 05:01:10;;;;;;;;;;;20.60;89.60;;;;;;4165612;28;20394;-52
2023/08/04 05:03:51;;;;;;;;;;;20.60;90.00;;;;;;4142274;28;19935;-52
2023/08/04 05:06:33;;;;;;;;;;;20.60;90.00;;;;;;4149726;28;19931;-51
2023/08/04 05:09:24;;;;;;;;;;;20.60;90.00;;;;;;4156570;28;20356;-51
2023/08/04 05:12:09;;;;;;;;;;;20.70;90.00;;;;;;4132150;28;19992;-42
2023/08/04 05:14:51;;;;;;;;;;;20.70;90.00;;;;;;4136789;28;19935;-42
2023/08/04 05:17:39;;;;;;;;;;;20.70;90.00;;;;;;4124014;28;19932;-42
2023/08/04 05:20:21;;;;;;;;;;;20.60;89.90;;;;;;4126719;28;19936;-42
2023/08/04 05:23:03;;;;;;;;;;;20.60;89.90;;;;;;4147069;28;20003;-42
2023/08/04 05:25:45;;;;;;;;;;;20.60;89.90;;;;;;4169121;28;20337;-42
2023/08/04 05:28:32;;;;;;;;;;;20.60;89.90;;;;;;4165750;28;19939;-42
2023/08/04 05:31:14;;;;;;;;;;;20.60;89.90;;;;;;4150452;28;19936;-42
2023/08/04 05:34:00;;;;;;;;;;;20.60;90.00;;;;;;4152820;28;20440;-43
2023/08/04 05:36:44;;;;;;;;;;;20.60;90.00;;;;;;4129087;28;19932;-42
2023/08/04 05:39:28;;;;;;;;;;;20.60;90.00;;;;;;4154977;28;19931;-42
2023/08/04 05:42:10;;;;;;;;;;;20.60;90.00;;;;;;4144267;28;20085;-42
2023/08/04 05:44:59;;;;;;;;;;;20.60;90.00;;;;;;4132985;28;19932;-42
2023/08/04 05:47:45;;;;;;;;;;;20.60;90.00;;;;;;4151660;28;20063;-52
2023/08/04 05:50:28;;;;;;;;;;;20.60;90.00;;;;;;4153144;28;19974;-51
2023/08/04 05:53:14;;;;;;;;;;;20.60;90.40;;;;;;4132325;28;20099;-51
2023/08/04 05:56:02;;;;;;;;;;;20.60;90.00;;;;;;4135235;28;19924;-42
2023/08/04 05:58:50;;;;;;;;;;;20.60;90.00;;;;;;4161496;28;20399;-45
2023/08/04 06:01:37;;;;;;;;;;;20.60;90.00;;;;;;4124911;28;19931;-42
2023/08/04 06:04:19;;;;;;;;;;;20.60;90.00;;;;;;4139548;28;20046;-52
2023/08/04 06:07:06;;;;;;;;;;;20.60;90.00;;;;;;4138447;28;19971;-50
2023/08/04 06:09:52;;;;;;;;;;;20.60;90.00;;;;;;4141910;28;19939;-50
2023/08/04 06:12:38;;;;;;;;;;;20.60;90.00;;;;;;4122123;28;20491;-42
2023/08/04 06:15:24;;;;;;;;;;;20.60;90.00;;;;;;4158847;28;19932;-51
2023/08/04 06:18:08;;;;;;;;;;;20.60;90.00;;;;;;4156799;28;19978;-53
2023/08/04 06:20:53;;;;;;;;;;;20.60;90.00;;;;;;4127900;28;19932;-49
2023/08/04 06:23:45;;;;;;;;;;;20.60;90.00;;;;;;4137249;28;19975;-42
2023/08/04 06:26:32;;;;;;;;;;;20.60;90.00;;;;;;4129607;28;20264;-53
2023/08/04 06:29:16;;;;;;;;;;;20.60;90.00;;;;;;4152710;28;20110;-53
2023/08/04 06:31:58;;;;;;;;;;;20.60;90.40;;;;;;4118216;28;19936;-51
2023/08/04 06:34:41;;;;;;;;;;;20.60;90.00;;;;;;4129195;28;19931;-51
2023/08/04 06:37:24;;;;;;;;;;;20.60;90.00;;;;;;4119467;28;19948;-51
2023/08/04 06:40:09;;;;;;;;;;;20.60;90.00;;;;;;4151006;28;20067;-50
2023/08/04 06:42:59;;;;;;;;;;;20.60;90.00;;;;;;4081960;28;19983;-50
2023/08/04 06:45:45;;;;;;;;;;;20.60;90.00;;;;;;4093944;28;19988;-51
2023/08/04 06:48:29;;;;;;;;;;;20.60;90.00;;;;;;4115435;28;19935;-49
2023/08/04 06:51:16;;;;;;;;;;;20.60;90.00;;;;;;4141734;28;20053;-49
2023/08/04 06:54:08;;;;;;;;;;;20.60;90.00;;;;;;4128332;28;20047;-50
2023/08/04 06:56:50;;;;;;;;;;;20.60;90.00;;;;;;4101070;28;19952;-51
2023/08/04 06:59:45;;;;;;;;;;;20.60;90.50;;;;;;4114497;28;19936;-51
2023/08/04 07:02:30;;;;;;;;;;;20.60;90.10;;;;;;4083316;28;20014;-50
2023/08/04 07:05:26;;;;;;;;;;;20.60;90.10;;;;;;4052380;28;20034;-53
2023/08/04 07:08:23;;;;;;;;;;;20.60;90.10;;;;;;4106430;28;19935;-42
2023/08/04 07:11:33;;;;;;;;;;;20.60;90.20;;;;;;4102309;28;20119;-44
2023/08/04 07:14:15;;;;;;;;;;;20.60;90.20;;;;;;4107462;28;19947;-43
2023/08/04 07:16:57;;;;;;;;;;;20.70;90.20;;;;;;4131613;28;19992;-53
2023/08/04 07:19:51;;;;;;;;;;;20.70;90.20;;;;;;4094620;28;20086;-51
2023/08/04 07:22:34;;;;;;;;;;;20.70;90.20;;;;;;4079335;28;19948;-43
2023/08/04 07:25:20;;;;;;;;;;;20.70;90.20;;;;;;4130614;28;20083;-53
2023/08/04 07:28:03;;;;;;;;;;;20.70;90.20;;;;;;4125190;28;20316;-43
2023/08/04 07:30:54;;;;;;;;;;;20.70;90.20;;;;;;4108341;28;19932;-43
2023/08/04 07:33:38;;;;;;;;;;;20.70;90.30;;;;;;4111479;28;20551;-42
2023/08/04 07:36:23;;;;;;;;;;;20.70;90.30;;;;;;4114104;28;20680;-43
2023/08/04 07:39:11;;;;;;;;;;;20.70;90.30;;;;;;4144335;28;19936;-43
2023/08/04 07:41:56;;;;;;;;;;;20.70;90.30;;;;;;4130237;28;20067;-54
2023/08/04 07:44:51;;;;;;;;;;;20.70;90.30;;;;;;4105031;28;19935;-49
2023/08/04 07:47:34;;;;;;;;;;;20.70;90.30;;;;;;4144758;28;19936;-43
2023/08/04 07:50:20;;;;;;;;;;;20.70;90.20;;;;;;4135594;28;19932;-43
2023/08/04 07:53:09;;;;;;;;;;;20.70;90.20;;;;;;4135483;28;19986;-43
2023/08/04 07:55:56;;;;;;;;;;;20.70;90.20;;;;;;4113721;28;19936;-43
2023/08/04 07:58:42;;;;;;;;;;;20.70;90.20;;;;;;4133321;28;20002;-52
2023/08/04 08:01:23;;;;;;;;;;;20.70;90.20;;;;;;4139081;28;19934;-52
2023/08/04 08:04:15;;;;;;;;;;;20.70;90.20;;;;;;4127709;28;19936;-42
2023/08/04 08:07:02;;;;;;;;;;;20.70;90.20;;;;;;4077088;28;19949;-50
2023/08/04 08:09:55;;;;;;;;;;;20.70;90.10;;;;;;4144134;28;19936;-43
2023/08/04 08:12:39;;;;;;;;;;;20.70;90.10;;;;;;4116520;28;19932;-52
2023/08/04 08:15:27;;;;;;;;;;;20.70;90.10;;;;;;4130955;28;20406;-54
2023/08/04 08:18:11;;;;;;;;;;;20.70;90.00;;;;;;4129260;28;19961;-50
2023/08/04 08:20:53;;;;;;;;;;;20.70;90.00;;;;;;4144267;28;20444;-43
2023/08/04 08:23:42;;;;;;;;;;;20.70;90.00;;;;;;4132352;28;20051;-41
2023/08/04 08:26:30;;;;;;;;;;;20.70;90.00;;;;;;4119946;28;19984;-52
2023/08/04 08:29:12;;;;;;;;;;;20.70;89.80;;;;;;4154605;28;19932;-52
2023/08/04 08:32:01;;;;;;;;;;;20.70;89.80;;;;;;4113089;28;19978;-52
2023/08/04 08:34:45;;;;;;;;;;;20.70;89.80;;;;;;4117556;28;20786;-43
2023/08/04 08:37:34;;;;;;;;;;;20.70;89.80;;;;;;4131951;28;20059;-50
2023/08/04 08:40:17;;;;;;;;;;;20.70;89.70;;;;;;4133115;28;19936;-52
2023/08/04 08:42:58;;;;;;;;;;;20.70;89.70;;;;;;4113399;28;19948;-42
2023/08/04 08:45:41;;;;;;;;;;;20.80;89.70;;;;;;4139983;28;19932;-42
2023/08/04 08:48:25;;;;;;;;;;;20.80;89.70;;;;;;4134768;28;19940;-42
2023/08/04 08:51:08;;;;;;;;;;;20.80;89.60;;;;;;4135204;28;19933;-52
2023/08/04 08:53:51;;;;;;;;;;;20.80;89.70;;;;;;4110903;28;20545;-42
2023/08/04 08:56:38;;;;;;;;;;;20.80;89.70;;;;;;4134826;28;19936;-42
2023/08/04 08:59:22;;;;;;;;;;;20.80;89.70;;;;;;4119607;28;19951;-42
2023/08/04 09:02:13;;;;;;;;;;;20.90;89.80;;;;;;4132776;28;20038;-42
2023/08/04 09:04:59;;;;;;;;;;;20.90;89.70;;;;;;4074046;28;19935;-42
2023/08/04 09:07:42;;;;;;;;;;;20.90;89.70;;;;;;4143912;28;19936;-53
2023/08/04 09:10:24;;;;;;;;;;;21.00;89.70;;;;;;4126866;28;19936;-51
2023/08/04 09:13:10;;;;;;;;;;;21.00;89.60;;;;;;4121418;28;19933;-51
2023/08/04 09:16:03;;;;;;;;;;;21.00;89.60;;;;;;4143861;28;19981;-42
2023/08/04 09:19:01;;;;;;;;;;;21.00;89.70;;;;;;4106545;28;20010;-50
2023/08/04 09:21:47;;;;;;;;;;;21.00;89.70;;;;;;4151922;28;19939;-43
2023/08/04 09:24:36;;;;;;;;;;;20.90;89.70;;;;;;4125602;28;20437;-43
2023/08/04 09:27:29;;;;;;;;;;;21.00;89.90;;;;;;4118358;28;19931;-52
2023/08/04 09:30:12;;;;;;;;;;;21.00;90.30;;;;;;4112096;28;20611;-42
2023/08/04 09:33:01;;;;;;;;;;;21.00;90.00;;;;;;4098394;28;20299;-52
2023/08/04 09:35:47;;;;;;;;;;;21.00;90.00;;;;;;4130866;28;19937;-53
2023/08/04 09:38:36;;;;;;;;;;;21.00;90.30;;;;;;4115651;28;19982;-48
2023/08/04 09:41:18;;;;;;;;;;;21.00;90.00;;;;;;4144716;28;19948;-51
2023/08/04 09:44:05;;;;;;;;;;;21.00;90.00;;;;;;4106564;28;20063;-42
2023/08/04 09:46:54;;;;;;;;;;;21.00;90.00;;;;;;4125996;28;20001;-52
2023/08/04 09:49:38;;;;;;;;;;;21.00;90.00;;;;;;4129025;28;19936;-51
2023/08/04 09:52:23;;;;;;;;;;;21.10;90.00;;;;;;4117460;28;19952;-51
2023/08/04 09:55:15;;;;;;;;;;;21.00;90.40;;;;;;4157768;28;20412;-52
2023/08/04 09:57:59;;;;;;;;;;;21.10;89.90;;;;;;4157196;28;20379;-53
2023/08/04 10:00:42;;;;;;;;;;;21.10;89.80;;;;;;4119661;28;20717;-51
2023/08/04 10:03:25;;;;;;;;;;;21.00;89.80;;;;;;4121958;28;19939;-49
2023/08/04 10:06:09;;;;;;;;;;;21.10;89.90;;;;;;4118473;28;19932;-50
2023/08/04 10:08:53;;;;;;;;;;;21.10;89.90;;;;;;4122915;28;20019;-42
2023/08/04 10:11:36;;;;;;;;;;;21.10;90.00;;;;;;4115415;28;19932;-42
2023/08/04 10:14:21;;;;;;;;;;;21.10;89.90;;;;;;4073689;28;19936;-49
2023/08/04 10:17:07;;;;;;;;;;;21.10;89.90;;;;;;4126991;28;19978;-41
2023/08/04 10:19:50;;;;;;;;;;;21.10;89.70;;;;;;4132073;28;19931;-49
2023/08/04 10:22:45;;;;;;;;;;;21.20;89.40;;;;;;4148555;28;20433;-49
2023/08/04 10:25:31;;;;;;;;;;;21.20;89.30;;;;;;4148238;28;19932;-42
2023/08/04 10:28:18;;;;;;;;;;;21.20;89.20;;;;;;4134435;28;19932;-42
2023/08/04 10:31:04;;;;;;;;;;;21.20;88.90;;;;;;4158161;28;20012;-52
2023/08/04 10:34:09;;;;;;;;;;;21.20;88.70;;;;;;4128627;28;19935;-43
2023/08/04 10:37:05;;;;;;;;;;;21.20;88.60;;;;;;4108302;28;20014;-52
2023/08/04 10:39:58;;;;;;;;;;;21.20;87.70;;;;;;4106601;28;19936;-42
2023/08/04 10:43:03;;;;;;;;;;;21.30;87.50;;;;;;4109092;28;20456;-42
2023/08/04 10:45:55;;;;;;;;;;;21.30;87.50;;;;;;4089413;28;19995;-47
2023/08/04 10:48:49;;;;;;;;;;;21.40;87.70;;;;;;4125173;28;20050;-53
2023/08/04 10:51:36;;;;;;;;;;;21.40;87.90;;;;;;4085751;28;19997;-51
2023/08/04 10:54:18;;;;;;;;;;;21.40;87.90;;;;;;4084175;28;19936;-50
2023/08/04 10:57:01;;;;;;;;;;;21.40;87.40;;;;;;4103532;28;20403;-53
2023/08/04 10:59:44;;;;;;;;;;;21.40;87.40;;;;;;4103617;28;20404;-54
2023/08/04 11:02:28;;;;;;;;;;;21.50;87.50;;;;;;4116625;28;20264;-44
2023/08/04 11:05:14;;;;;;;;;;;21.50;87.40;;;;;;4101982;28;20399;-52
2023/08/04 11:07:59;;;;;;;;;;;21.50;87.10;;;;;;4138207;28;20307;-43
2023/08/04 11:10:46;;;;;;;;;;;21.60;86.60;;;;;;4145294;28;19932;-52
2023/08/04 11:13:31;;;;;;;;;;;21.60;86.30;;;;;;4134979;28;19936;-52
2023/08/04 11:16:16;;;;;;;;;;;21.60;86.20;;;;;;4114110;28;19936;-43
2023/08/04 11:19:01;;;;;;;;;;;21.70;85.70;;;;;;4118493;28;19932;-43
2023/08/04 11:21:53;;;;;;;;;;;21.70;85.20;;;;;;4125322;28;20296;-43
2023/08/04 11:24:35;;;;;;;;;;;21.70;85.20;;;;;;4117180;28;19940;-52
2023/08/04 11:27:18;;;;;;;;;;;21.70;85.00;;;;;;4119119;28;20372;-43
2023/08/04 11:30:00;;;;;;;;;;;21.70;84.60;;;;;;4103750;28;20316;-54
2023/08/04 11:32:50;;;;;;;;;;;21.70;85.80;;;;;;4147115;28;19935;-43
2023/08/04 11:35:34;;;;;;;;;;;21.70;84.70;;;;;;4114462;28;19955;-53
2023/08/04 11:38:22;;;;;;;;;;;21.70;84.80;;;;;;4123969;28;19948;-54
2023/08/04 11:41:09;;;;;;;;;;;21.80;84.40;;;;;;4118836;28;19978;-43
2023/08/04 11:43:53;;;;;;;;;;;21.80;84.10;;;;;;4129018;28;20091;-42
2023/08/04 11:46:34;;;;;;;;;;;21.80;83.40;;;;;;4126875;28;19932;-52
2023/08/04 11:49:16;;;;;;;;;;;21.80;83.60;;;;;;4134968;28;19984;-54
2023/08/04 11:52:04;;;;;;;;;;;21.80;83.70;;;;;;4135531;28;20395;-52
2023/08/04 11:54:57;;;;;;;;;;;21.80;84.10;;;;;;4092940;28;19986;-43
2023/08/04 11:57:47;;;;;;;;;;;21.80;83.40;;;;;;4124009;28;20071;-43
2023/08/04 12:00:33;;;;;;;;;;;21.90;82.80;;;;;;4094184;28;19944;-53
2023/08/04 12:03:18;;;;;;;;;;;21.90;82.70;;;;;;4130490;28;19939;-49
2023/08/04 12:06:04;;;;;;;;;;;21.90;82.80;;;;;;4140769;28;20058;-43
2023/08/04 12:08:51;;;;;;;;;;;21.90;82.70;;;;;;4144601;28;19952;-52
2023/08/04 12:11:46;;;;;;;;;;;21.90;82.70;;;;;;4144997;28;20015;-54
2023/08/04 12:14:28;;;;;;;;;;;21.90;83.20;;;;;;4141259;28;20039;-43
2023/08/04 12:17:10;;;;;;;;;;;21.90;83.00;;;;;;4128382;28;19936;-51
2023/08/04 12:19:53;;;;;;;;;;;21.90;83.20;;;;;;4102913;28;19985;-52
2023/08/04 12:22:47;;;;;;;;;;;21.90;83.00;;;;;;4100386;28;19961;-53
2023/08/04 12:25:32;;;;;;;;;;;21.90;83.50;;;;;;4112773;28;20073;-43
2023/08/04 12:28:16;;;;;;;;;;;21.90;83.70;;;;;;4102452;28;20461;-44
2023/08/04 12:31:02;;;;;;;;;;;21.90;83.40;;;;;;4114207;28;20422;-46
2023/08/04 12:33:57;;;;;;;;;;;21.90;84.10;;;;;;4124575;28;19958;-52
2023/08/04 12:36:40;;;;;;;;;;;22.00;84.00;;;;;;4122004;28;19932;-43
2023/08/04 12:39:22;;;;;;;;;;;22.00;84.10;;;;;;4132976;28;19932;-53
2023/08/04 12:42:14;;;;;;;;;;;22.00;84.00;;;;;;4098053;28;19936;-54
2023/08/04 12:44:55;;;;;;;;;;;22.00;83.50;;;;;;4141302;28;19950;-43
2023/08/04 12:47:37;;;;;;;;;;;22.00;83.70;;;;;;4112671;28;20319;-43
2023/08/04 12:50:25;;;;;;;;;;;22.00;84.40;;;;;;4133167;28;19967;-53
2023/08/04 12:53:07;;;;;;;;;;;22.00;83.40;;;;;;4116247;28;20075;-55
2023/08/04 12:55:52;;;;;;;;;;;22.10;83.50;;;;;;4151866;28;20006;-50
2023/08/04 12:58:35;;;;;;;;;;;22.10;82.60;;;;;;4142980;28;19944;-42
2023/08/04 13:01:22;;;;;;;;;;;22.10;83.00;;;;;;4123893;28;24399;-43
2023/08/04 13:04:04;;;;;;;;;;;22.10;83.70;;;;;;4150576;28;19932;-53
2023/08/04 13:06:50;;;;;;;;;;;22.10;83.80;;;;;;4146219;28;19936;-54
2023/08/04 13:09:41;;;;;;;;;;;22.10;83.40;;;;;;4158570;28;19974;-53
2023/08/04 13:12:27;;;;;;;;;;;22.10;82.80;;;;;;4153962;28;20175;-53
2023/08/04 13:15:11;;;;;;;;;;;22.10;83.60;;;;;;4109924;28;19988;-53
2023/08/04 13:18:02;;;;;;;;;;;22.20;83.90;;;;;;4081565;28;19937;-54
2023/08/04 13:20:49;;;;;;;;;;;22.20;83.60;;;;;;4127898;28;19978;-52
2023/08/04 13:23:38;;;;;;;;;;;22.20;83.40;;;;;;4122363;28;19947;-51
2023/08/04 13:26:20;;;;;;;;;;;22.20;82.80;;;;;;4141816;28;19936;-42
2023/08/04 13:29:01;;;;;;;;;;;22.20;83.10;;;;;;4142401;28;19932;-43
2023/08/04 13:31:45;;;;;;;;;;;22.20;83.10;;;;;;4128636;28;19987;-42
2023/08/04 13:34:27;;;;;;;;;;;22.30;83.10;;;;;;4105283;28;19998;-55
2023/08/04 13:37:09;;;;;;;;;;;22.30;82.60;;;;;;4130007;28;19974;-51
2023/08/04 13:40:02;;;;;;;;;;;22.30;82.70;;;;;;4134051;28;20105;-54
2023/08/04 13:42:46;;;;;;;;;;;22.30;82.90;;;;;;4091735;28;20343;-52
2023/08/04 13:45:32;;;;;;;;;;;22.30;82.50;;;;;;4122043;28;19975;-42
2023/08/04 13:48:15;;;;;;;;;;;22.30;82.50;;;;;;4127017;28;20019;-42
2023/08/04 13:50:57;;;;;;;;;;;22.20;82.10;;;;;;4130839;28;20055;-42
2023/08/04 13:53:43;;;;;;;;;;;22.30;82.20;;;;;;4126993;28;19935;-43
2023/08/04 13:56:26;;;;;;;;;;;22.20;82.30;;;;;;4120986;28;19971;-53
2023/08/04 13:59:11;;;;;;;;;;;22.20;82.50;;;;;;4145027;28;19932;-53
2023/08/04 14:01:53;;;;;;;;;;;22.30;82.70;;;;;;4131783;28;20305;-53
2023/08/04 14:04:36;;;;;;;;;;;22.30;83.00;;;;;;4103070;28;20686;-56
2023/08/04 14:07:19;;;;;;;;;;;22.30;83.00;;;;;;4107214;28;20442;-44
2023/08/04 14:10:01;;;;;;;;;;;22.30;82.80;;;;;;4134128;28;19932;-43
2023/08/04 14:12:45;;;;;;;;;;;22.30;82.60;;;;;;4132729;28;19932;-43
2023/08/04 14:15:28;;;;;;;;;;;22.30;82.70;;;;;;4127490;28;19948;-55
2023/08/04 14:18:09;;;;;;;;;;;22.30;81.80;;;;;;4124873;28;19959;-43
2023/08/04 14:20:59;;;;;;;;;;;22.30;81.70;;;;;;4103892;28;19935;-42
2023/08/04 14:23:40;;;;;;;;;;;22.30;81.80;;;;;;4139938;28;20063;-42
2023/08/04 14:26:25;;;;;;;;;;;22.30;82.00;;;;;;4091770;28;19937;-43
2023/08/04 14:29:08;;;;;;;;;;;22.30;81.70;;;;;;4110760;28;19932;-43
2023/08/04 14:31:50;;;;;;;;;;;22.30;81.60;;;;;;4126502;28;19953;-43
2023/08/04 14:34:32;;;;;;;;;;;22.30;81.50;;;;;;4106391;28;20522;-44
2023/08/04 14:37:18;;;;;;;;;;;22.30;81.30;;;;;;4118316;28;19987;-44
2023/08/04 14:40:03;;;;;;;;;;;22.30;81.00;;;;;;4118552;28;20091;-52
2023/08/04 14:42:45;;;;;;;;;;;22.30;80.80;;;;;;4128816;28;19936;-51
2023/08/04 14:45:26;;;;;;;;;;;22.30;80.10;;;;;;4113983;28;20403;-43
2023/08/04 14:48:12;;;;;;;;;;;22.30;80.40;;;;;;4123165;28;20366;-43
2023/08/04 14:50:55;;;;;;;;;;;22.30;77.90;;;;;;4136319;28;19932;-43
2023/08/04 14:53:38;;;;;;;;;;;22.30;79.00;;;;;;4108184;28;19966;-44
2023/08/04 14:56:23;;;;;;;;;;;22.30;78.70;;;;;;4109626;28;20367;-54
2023/08/04 14:59:08;;;;;;;;;;;22.30;78.00;;;;;;4102453;28;19971;-43
2023/08/04 15:01:55;;;;;;;;;;;22.30;77.70;;;;;;4093546;28;21671;-43
2023/08/04 15:04:43;;;;;;;;;;;22.30;78.40;;;;;;4105111;28;19932;-47
2023/08/04 15:07:32;;;;;;;;;;;22.30;78.00;;;;;;4114000;28;19932;-51
2023/08/04 15:10:19;;;;;;;;;;;22.30;77.80;;;;;;4096809;28;19932;-43
2023/08/04 15:13:05;;;;;;;;;;;22.30;78.40;;;;;;4134858;28;19982;-52
2023/08/04 15:15:50;;;;;;;;;;;22.30;78.00;;;;;;4107037;28;20008;-43
2023/08/04 15:18:38;;;;;;;;;;;22.30;78.40;;;;;;4112057;28;19991;-43
2023/08/04 15:21:20;;;;;;;;;;;22.40;79.10;;;;;;4129447;28;19984;-44
2023/08/04 15:24:01;;;;;;;;;;;22.40;79.20;;;;;;4120928;28;19936;-44
2023/08/04 15:26:49;;;;;;;;;;;22.40;80.00;;;;;;4083996;28;20001;-54
2023/08/04 15:29:38;;;;;;;;;;;22.40;80.30;;;;;;4108686;28;20407;-54
2023/08/04 15:32:21;;;;;;;;;;;22.40;80.50;;;;;;4130922;28;19932;-52
2023/08/04 15:35:03;;;;;;;;;;;22.40;79.00;;;;;;4126020;28;20051;-43
2023/08/04 15:37:47;;;;;;;;;;;22.40;79.30;;;;;;4139323;28;19931;-43
2023/08/04 15:40:31;;;;;;;;;;;22.40;79.10;;;;;;4157877;28;20311;-45
2023/08/04 15:43:19;;;;;;;;;;;22.40;79.10;;;;;;4127098;28;19932;-54
2023/08/04 15:46:06;;;;;;;;;;;22.40;78.60;;;;;;4160841;28;19983;-52
2023/08/04 15:48:48;;;;;;;;;;;22.40;79.00;;;;;;4137622;28;19932;-52
2023/08/04 15:51:30;;;;;;;;;;;22.40;78.70;;;;;;4115542;28;19936;-50
2023/08/04 15:54:15;;;;;;;;;;;22.40;78.40;;;;;;4120383;28;19936;-52
2023/08/04 15:57:02;;;;;;;;;;;22.40;78.70;;;;;;4117511;28;19963;-52
2023/08/04 15:59:46;;;;;;;;;;;22.40;78.20;;;;;;4114857;28;19954;-51
2023/08/04 16:02:28;;;;;;;;;;;22.40;78.30;;;;;;4108571;28;20376;-43